createdAt,value
2017-04-12T12:18:05.673Z,70.87
2017-04-12T12:23:05.576Z,70.43
2017-04-12T12:28:05.567Z,70.37
2017-04-12T12:33:05.450Z,70.23
2017-04-12T12:38:05.362Z,69.79
2017-04-12T12:43:05.302Z,69.69
2017-04-12T12:48:05.329Z,69.31
2017-04-12T12:53:05.182Z,70.21
2017-04-12T12:58:05.262Z,70.07
2017-04-12T13:03:05.076Z,70.84
2017-04-12T13:08:04.995Z,71.48
2017-04-12T13:13:04.939Z,72.22
2017-04-12T13:18:04.569Z,71.64
2017-04-12T13:23:04.816Z,69.56
2017-04-12T13:28:04.759Z,69.89
2017-04-12T13:33:04.690Z,70.56
2017-04-12T13:38:04.631Z,68.89
2017-04-12T13:43:04.573Z,68.57
2017-04-12T13:48:04.520Z,68.99
2017-04-12T13:53:04.461Z,70.3
2017-04-12T13:58:04.410Z,71.14
2017-04-12T14:03:04.343Z,71.39
2017-04-12T14:08:04.273Z,71.67
2017-04-12T14:13:04.229Z,71.35
2017-04-12T14:18:04.151Z,72.89
2017-04-12T14:23:04.095Z,72.56
2017-04-12T14:28:04.022Z,71.98
2017-04-12T14:33:03.967Z,72.18
2017-04-12T14:38:03.901Z,72.63
2017-04-12T14:43:03.838Z,72.43
2017-04-12T14:48:03.486Z,72.72
2017-04-12T14:53:03.757Z,72.43
2017-04-12T14:58:03.641Z,72.72
2017-04-12T15:03:03.585Z,72.11
2017-04-12T15:08:03.522Z,72.97
2017-04-12T15:13:03.447Z,72.59
2017-04-12T15:18:03.379Z,75.27
2017-04-12T15:23:03.317Z,73.55
2017-04-12T15:28:03.239Z,72.68
2017-04-12T15:33:03.174Z,73.26
2017-04-12T15:38:03.111Z,74.31
2017-04-12T15:43:02.736Z,73.07
2017-04-12T15:48:02.982Z,74.22
2017-04-12T15:53:02.900Z,74.31
2017-04-12T15:58:02.854Z,75.23
2017-04-12T16:03:02.786Z,76.23
2017-04-12T16:08:02.701Z,75.95
2017-04-12T16:13:02.639Z,74.02
2017-04-12T16:18:02.571Z,73.83
2017-04-12T16:23:02.504Z,74.22
2017-04-12T16:28:02.443Z,73.83
2017-04-12T16:33:02.177Z,74.41
